North Central West Virginia Airport
KCKB : now visible

Airfield :











YOU CAN JOIN US ON...

 
LOGIN :

Register | Disclaimer

   EN    FR    IT 

 









Legend :    VFR   Marginal VFR   IFR   Intensive IFR   Very Intensive IFR
Visi :
Ceiling :
>= 8 km
>= 3000ft
5 to 8 km
1000 to 3000 ft
1500m to 5 km
500 to 1000 ft
800 to 1500m
200 to 500 ft
< 800m
< 200 ft
Symbols :   Thunderstorms  Fog  Heavy snow  Heavy precipitations  Wind > 20 kt






- Airport Elevation : 1217 ft
- IATA code : CKB


KCKB - North Central West Virginia

CURRENT METAR :
  • 220353Z AUTO 24010KT 10SM OVC035 16/02 A2997 RMK AO2 SLP142 T01560022

EXPIRED METARs :
  • 220253Z AUTO 23008KT 10SM OVC038 15/M01 A2998 RMK AO2 RAB05E14 SLP148 P0000 60000 T01501011 56007

TAF KCKB
Valid from the 22 at 02:00 until the 23 at 00:00 UTC


220227Z 2202/2224 22010G17KT P6SM OVC040
FM220900 23010G19KT P6SM -RA OVC015
FM221200 26009G17KT 4SM RA BR OVC012
FM221400 27009G17KT 1 1/2SM RA BR OVC011
FM221600 32009G16KT 4SM -RA BR OVC012
FM221900 31008KT P6SM BKN025
FM222100 31008KT P6SM SCT035



MET'MAP, your aeronautical weather chart ! - Copyright ORBIFLY December 2007 - Disclaimer

ORBIFLY MET'MAP TEAM :

Programming & Development : Alexandra Zaïnal
Concept & Development : Baudouin d'Aumeries
Co-Development & Prog : Marc-Olivier Méhu
Technical & hardware support : Manuel Goepfert

Contact : metmap@orbifly.com




SOURCES & CREDITS :

   NOAA       Earth
Advisory